createdAt,value
2019-05-11T00:00:23.888Z,7.33
2019-05-11T00:04:28.157Z,8.98
2019-05-11T00:06:30.187Z,7.58
2019-05-11T00:08:32.379Z,8.38
2019-05-11T00:10:34.428Z,7.30
2019-05-11T00:12:38.447Z,14.33
2019-05-11T00:14:40.618Z,11.65
2019-05-11T00:16:42.622Z,11.45
2019-05-11T00:18:44.915Z,9.88
2019-05-11T00:20:47.222Z,10.13
2019-05-11T00:22:51.996Z,10.43
2019-05-11T00:24:54.201Z,9.95
2019-05-11T00:26:56.776Z,10.20
2019-05-11T00:28:58.927Z,11.38
2019-05-11T00:31:03.778Z,11.03
2019-05-11T00:33:06.020Z,11.93
2019-05-11T00:35:08.013Z,14.93
2019-05-11T00:37:10.045Z,10.65
2019-05-11T00:39:12.237Z,16.75
2019-05-11T00:41:14.233Z,9.23
2019-05-11T00:43:16.284Z,14.00
2019-05-11T00:45:18.401Z,8.15
2019-05-11T00:47:20.589Z,13.32
2019-05-11T00:49:22.644Z,11.85
2019-05-11T00:51:24.786Z,15.10
2019-05-11T00:53:26.937Z,8.85
2019-05-11T00:55:29.043Z,11.93
2019-05-11T00:57:31.182Z,9.98
2019-05-11T00:59:33.169Z,14.50
2019-05-11T01:01:35.358Z,11.63
2019-05-11T01:03:37.584Z,12.63
2019-05-11T01:05:39.689Z,7.83
2019-05-11T01:07:41.714Z,13.00
2019-05-11T01:09:44.068Z,18.15
2019-05-11T01:13:48.057Z,11.45
2019-05-11T01:15:50.255Z,13.00
2019-05-11T01:17:52.299Z,13.03
2019-05-11T01:19:54.423Z,13.62
2019-05-11T01:21:56.750Z,16.65
2019-05-11T01:23:58.759Z,13.03
2019-05-11T01:26:00.800Z,12.63
2019-05-11T01:28:03.381Z,13.58
2019-05-11T01:30:07.073Z,14.75
2019-05-11T01:32:09.112Z,20.80
2019-05-11T01:34:11.577Z,14.63
2019-05-11T01:36:13.739Z,13.00
2019-05-11T01:38:15.757Z,12.33
2019-05-11T01:40:18.175Z,12.30
2019-05-11T01:44:21.838Z,13.55
2019-05-11T01:46:24.057Z,17.35
2019-05-11T01:48:26.042Z,23.75
2019-05-11T01:50:28.442Z,16.15
2019-05-11T01:54:32.622Z,16.77
2019-05-11T01:56:34.636Z,14.80
2019-05-11T01:58:36.834Z,11.95
2019-05-11T02:00:38.877Z,14.13
2019-05-11T02:02:40.901Z,14.30
2019-05-11T02:04:43.329Z,19.27
2019-05-11T02:06:46.292Z,20.12
2019-05-11T02:08:48.601Z,16.30
2019-05-11T02:10:50.933Z,18.20
2019-05-11T02:12:52.928Z,15.43
2019-05-11T02:14:54.970Z,13.03
2019-05-11T02:16:57.348Z,13.98
2019-05-11T02:21:01.165Z,16.30
2019-05-11T02:23:04.451Z,14.07
2019-05-11T02:25:07.309Z,17.62
2019-05-11T02:27:09.392Z,20.60
2019-05-11T02:29:11.757Z,13.80
2019-05-11T02:31:13.767Z,15.88
2019-05-11T02:33:15.779Z,17.23
2019-05-11T02:35:17.958Z,12.82
2019-05-11T02:37:20.144Z,15.95
2019-05-11T02:39:22.495Z,22.02
2019-05-11T02:41:35.583Z,25.92
2019-05-11T02:43:28.559Z,15.08
2019-05-11T02:45:41.514Z,17.60
2019-05-11T02:47:43.855Z,17.70
2019-05-11T02:49:45.886Z,16.57
2019-05-11T02:51:49.700Z,18.62
2019-05-11T02:53:52.773Z,18.75
2019-05-11T02:55:54.817Z,19.05
2019-05-11T02:57:56.839Z,18.92
2019-05-11T02:59:58.911Z,18.42
2019-05-11T03:02:01.004Z,16.60
2019-05-11T03:04:03.204Z,19.12
2019-05-11T03:06:06.592Z,14.13
2019-05-11T03:08:08.881Z,15.28
2019-05-11T03:10:11.452Z,23.45
2019-05-11T03:12:13.689Z,13.78
2019-05-11T03:14:15.693Z,15.35
2019-05-11T03:16:17.771Z,17.85
2019-05-11T03:18:21.096Z,14.38
2019-05-11T03:20:23.103Z,15.72
2019-05-11T03:22:25.457Z,14.85
2019-05-11T03:24:27.808Z,22.35
2019-05-11T03:26:30.079Z,16.30
2019-05-11T03:28:32.144Z,14.83
2019-05-11T03:30:34.414Z,19.70
2019-05-11T03:32:36.472Z,17.23
2019-05-11T03:34:38.489Z,17.10
2019-05-11T03:36:40.714Z,15.95
2019-05-11T03:38:42.776Z,16.70
2019-05-11T03:40:44.793Z,13.55
2019-05-11T03:42:47.766Z,13.18
2019-05-11T03:44:49.815Z,17.92
2019-05-11T03:46:51.772Z,15.68
2019-05-11T03:48:54.077Z,14.85
2019-05-11T03:50:56.171Z,12.30
2019-05-11T03:52:58.151Z,16.25
2019-05-11T03:55:00.520Z,15.25
2019-05-11T03:59:04.307Z,15.08
2019-05-11T04:01:06.364Z,16.85
2019-05-11T04:03:08.477Z,20.40
2019-05-11T04:05:10.455Z,21.23
2019-05-11T04:07:12.847Z,13.62
2019-05-11T04:11:16.477Z,17.85
2019-05-11T04:13:18.824Z,10.40
2019-05-11T04:17:36.015Z,10.25
2019-05-11T04:19:38.337Z,9.15
2019-05-11T04:21:40.323Z,12.15
2019-05-11T04:23:42.360Z,9.98
2019-05-11T04:25:44.929Z,12.80
2019-05-11T04:27:47.082Z,10.93
2019-05-11T04:29:49.090Z,14.25
2019-05-11T04:31:51.824Z,11.43
2019-05-11T04:33:53.837Z,13.93
2019-05-11T04:35:56.035Z,13.32
2019-05-11T04:37:58.313Z,16.42
2019-05-11T04:40:00.320Z,10.75
2019-05-11T04:42:02.441Z,7.87
2019-05-11T04:44:04.713Z,10.38
2019-05-11T04:46:06.730Z,7.70
2019-05-11T04:48:08.963Z,11.35
2019-05-11T04:50:11.625Z,10.68
2019-05-11T04:52:13.662Z,13.48
2019-05-11T04:56:16.477Z,9.13
2019-05-11T04:58:18.599Z,12.40
2019-05-11T05:00:21.201Z,8.65
2019-05-11T05:02:27.189Z,7.28
2019-05-11T05:04:28.701Z,9.20
2019-05-11T05:06:30.686Z,13.78
2019-05-11T05:08:32.938Z,7.30
2019-05-11T05:10:34.951Z,11.85
2019-05-11T05:12:36.925Z,9.88
2019-05-11T05:14:39.130Z,14.60
2019-05-11T05:16:41.345Z,14.18
2019-05-11T05:18:43.406Z,9.08
2019-05-11T05:20:45.840Z,12.40
2019-05-11T05:24:49.376Z,9.48
2019-05-11T05:26:51.600Z,11.83
2019-05-11T05:28:53.796Z,16.52
2019-05-11T05:30:55.795Z,7.30
2019-05-11T05:32:58.101Z,11.33
2019-05-11T05:35:00.224Z,9.73
2019-05-11T05:37:02.223Z,11.38
2019-05-11T05:39:08.828Z,8.75
2019-05-11T05:41:10.321Z,12.07
2019-05-11T05:43:25.587Z,13.68
2019-05-11T05:45:16.503Z,13.65
2019-05-11T05:47:18.536Z,15.45
2019-05-11T05:49:20.532Z,14.87
2019-05-11T05:51:23.204Z,9.65
2019-05-11T05:53:26.121Z,14.23
2019-05-11T05:55:28.113Z,12.13
2019-05-11T05:57:30.320Z,12.13
2019-05-11T05:59:32.487Z,12.95
2019-05-11T06:01:34.490Z,11.38
2019-05-11T06:03:37.930Z,14.53
2019-05-11T06:05:40.143Z,16.05
2019-05-11T06:07:42.580Z,12.23
2019-05-11T06:11:46.680Z,13.37
2019-05-11T06:13:48.683Z,12.73
2019-05-11T06:15:51.029Z,7.70
2019-05-11T06:17:53.517Z,13.70
2019-05-11T06:19:55.550Z,13.18
2019-05-11T06:21:57.923Z,12.47
2019-05-11T06:24:06.252Z,18.50
2019-05-11T06:26:04.125Z,13.20
2019-05-11T06:28:06.532Z,12.78
2019-05-11T06:32:10.395Z,12.35
2019-05-11T06:34:14.900Z,12.93
2019-05-11T06:36:17.100Z,14.35
2019-05-11T06:40:21.405Z,19.02
2019-05-11T06:44:25.024Z,14.50
2019-05-11T06:46:27.378Z,17.00
2019-05-11T06:48:30.542Z,16.62
2019-05-11T06:50:32.663Z,14.28
2019-05-11T06:52:34.896Z,11.18
2019-05-11T06:54:38.046Z,16.00
2019-05-11T06:56:40.081Z,11.93
2019-05-11T06:58:45.446Z,12.13
2019-05-11T07:00:46.789Z,14.23
2019-05-11T07:02:48.801Z,16.32
2019-05-11T07:04:51.264Z,16.07
2019-05-11T07:08:54.992Z,11.33
2019-05-11T07:10:57.346Z,11.12
2019-05-11T07:12:59.375Z,12.07
2019-05-11T07:15:01.419Z,9.80
2019-05-11T07:17:03.942Z,9.53
2019-05-11T07:21:08.639Z,13.72
2019-05-11T07:23:10.944Z,10.23
2019-05-11T07:25:12.953Z,14.13
2019-05-11T07:27:15.519Z,12.35
2019-05-11T07:31:19.257Z,14.35
2019-05-11T07:33:21.261Z,11.78
2019-05-11T07:35:23.524Z,14.55
2019-05-11T07:37:27.845Z,11.40
2019-05-11T07:39:30.678Z,15.63
2019-05-11T07:41:32.790Z,10.30
2019-05-11T07:43:35.182Z,10.23
2019-05-11T07:45:38.697Z,13.13
2019-05-11T07:47:40.925Z,13.20
2019-05-11T07:49:42.916Z,14.78
2019-05-11T07:51:45.009Z,11.88
2019-05-11T07:53:48.632Z,11.80
2019-05-11T07:55:51.125Z,11.03
2019-05-11T07:57:53.168Z,8.80
2019-05-11T07:59:57.883Z,11.88
2019-05-11T08:01:59.988Z,17.00
2019-05-11T08:04:02.001Z,12.23
2019-05-11T08:06:04.603Z,13.68
2019-05-11T08:10:10.710Z,11.70
2019-05-11T08:14:15.009Z,8.30
2019-05-11T08:16:18.531Z,12.68
2019-05-11T08:18:21.061Z,8.55
2019-05-11T08:20:23.046Z,11.12
2019-05-11T08:22:25.037Z,9.90
2019-05-11T08:24:28.461Z,11.43
2019-05-11T08:26:30.735Z,15.15
2019-05-11T08:28:32.836Z,15.85
2019-05-11T08:30:37.987Z,10.10
2019-05-11T08:32:39.420Z,12.03
2019-05-11T08:34:41.401Z,11.15
2019-05-11T08:36:43.765Z,11.35
2019-05-11T08:38:48.101Z,13.38
2019-05-11T08:40:49.634Z,11.05
2019-05-11T08:42:51.795Z,10.08
2019-05-11T08:44:53.811Z,13.32
2019-05-11T08:46:58.049Z,11.38
2019-05-11T08:49:00.338Z,10.30
2019-05-11T08:53:05.190Z,11.03
2019-05-11T08:55:08.421Z,9.10
2019-05-11T08:57:10.565Z,12.53
2019-05-11T08:59:12.833Z,10.93
2019-05-11T09:01:15.155Z,9.75
2019-05-11T09:03:18.026Z,9.18
2019-05-11T09:05:20.775Z,13.62
2019-05-11T09:07:24.220Z,9.73
2019-05-11T09:09:28.650Z,11.25
2019-05-11T09:11:30.783Z,12.63
2019-05-11T09:13:32.862Z,9.70
2019-05-11T09:15:39.811Z,8.90
2019-05-11T09:17:39.994Z,8.80
2019-05-11T09:19:42.415Z,8.08
2019-05-11T09:21:44.665Z,13.83
2019-05-11T09:23:48.653Z,9.48
2019-05-11T09:25:50.965Z,11.15
2019-05-11T09:27:53.005Z,13.78
2019-05-11T09:29:55.027Z,9.90
2019-05-11T09:31:58.203Z,16.75
2019-05-11T09:34:00.816Z,16.05
2019-05-11T09:36:02.829Z,9.53
2019-05-11T09:38:08.014Z,10.45
2019-05-11T09:40:10.570Z,16.00
2019-05-11T09:42:12.860Z,15.68
2019-05-11T09:44:15.056Z,11.08
2019-05-11T09:46:18.923Z,11.55
2019-05-11T09:48:21.119Z,10.23
2019-05-11T09:50:24.511Z,11.12
2019-05-11T09:52:32.451Z,12.10
2019-05-11T09:54:34.645Z,12.55
2019-05-11T09:56:38.161Z,11.35
2019-05-11T09:58:40.474Z,11.48
2019-05-11T10:00:42.521Z,11.48
2019-05-11T10:02:44.975Z,12.70
2019-05-11T10:06:50.556Z,9.35
2019-05-11T10:08:52.794Z,10.60
2019-05-11T10:10:54.794Z,11.60
2019-05-11T10:12:58.778Z,11.90
2019-05-11T10:15:01.053Z,14.53
2019-05-11T10:19:04.948Z,15.65
2019-05-11T10:21:08.126Z,11.83
2019-05-11T10:23:10.236Z,10.40
2019-05-11T10:25:12.490Z,11.63
2019-05-11T10:27:14.934Z,10.68
2019-05-11T10:29:18.329Z,10.50
2019-05-11T10:31:21.781Z,8.78
2019-05-11T10:33:24.299Z,10.55
2019-05-11T10:37:28.449Z,7.28
2019-05-11T10:39:30.694Z,13.98
2019-05-11T10:41:32.706Z,8.13
2019-05-11T10:43:34.704Z,7.30
2019-05-11T10:45:37.900Z,7.83
2019-05-11T10:47:40.341Z,6.75
2019-05-11T10:49:42.376Z,6.08
2019-05-11T10:51:44.998Z,8.30
2019-05-11T10:53:51.286Z,5.62
2019-05-11T10:55:50.949Z,6.37
2019-05-11T10:57:52.941Z,4.92
2019-05-11T10:59:57.349Z,5.55
2019-05-11T11:01:59.247Z,11.90
2019-05-11T11:04:01.589Z,7.15
2019-05-11T11:06:03.822Z,9.40
2019-05-11T11:08:08.356Z,8.30
2019-05-11T11:10:10.742Z,8.00
2019-05-11T11:12:13.049Z,9.83
2019-05-11T11:14:15.054Z,12.07
2019-05-11T11:16:35.029Z,9.53
2019-05-11T11:18:22.309Z,10.82
2019-05-11T11:20:24.350Z,8.33
2019-05-11T11:22:38.935Z,8.23
2019-05-11T11:24:30.885Z,7.28
2019-05-11T11:26:32.914Z,9.63
2019-05-11T11:28:35.752Z,4.80
2019-05-11T11:30:37.997Z,12.78
2019-05-11T11:32:40.205Z,8.68
2019-05-11T11:34:42.547Z,6.95
2019-05-11T11:36:44.595Z,10.23
2019-05-11T11:38:47.913Z,5.92
2019-05-11T11:40:50.583Z,6.12
2019-05-11T11:42:52.834Z,5.58
2019-05-11T11:44:54.860Z,8.63
2019-05-11T11:46:59.098Z,7.22
2019-05-11T11:49:00.964Z,6.78
2019-05-11T11:51:04.079Z,6.17
2019-05-11T11:53:08.387Z,6.90
2019-05-11T11:55:10.610Z,4.62
2019-05-11T11:59:17.826Z,6.85
2019-05-11T12:01:20.126Z,12.07
2019-05-11T12:03:23.814Z,5.17
2019-05-11T12:05:28.108Z,7.55
2019-05-11T12:07:31.157Z,8.03
2019-05-11T12:09:34.394Z,6.53
2019-05-11T12:11:38.019Z,7.40
2019-05-11T12:13:40.402Z,6.83
2019-05-11T12:15:42.461Z,8.05
2019-05-11T12:17:44.681Z,8.33
2019-05-11T12:19:47.800Z,6.72
2019-05-11T12:21:50.091Z,7.10
2019-05-11T12:23:52.460Z,7.85
2019-05-11T12:25:54.485Z,8.65
2019-05-11T12:27:57.726Z,8.93
2019-05-11T12:30:00.239Z,9.00
2019-05-11T12:32:04.783Z,5.67
2019-05-11T12:34:08.781Z,6.90
2019-05-11T12:36:12.899Z,7.42
2019-05-11T12:38:15.036Z,9.85
2019-05-11T12:40:18.096Z,4.00
2019-05-11T12:42:20.998Z,5.97
2019-05-11T12:44:28.166Z,11.40
2019-05-11T12:46:30.077Z,4.70
2019-05-11T12:48:32.417Z,8.88
2019-05-11T12:50:34.405Z,7.87
2019-05-11T12:52:38.271Z,8.35
2019-05-11T12:54:40.804Z,9.98
2019-05-11T13:00:12.444Z,8.33
2019-05-11T13:02:14.685Z,9.13
2019-05-11T13:04:18.189Z,12.55
2019-05-11T13:06:20.576Z,5.00
2019-05-11T13:08:22.609Z,6.05
2019-05-11T13:10:24.752Z,10.43
2019-05-11T13:12:27.972Z,6.00
2019-05-11T13:14:30.126Z,10.90
2019-05-11T13:16:32.259Z,7.15
2019-05-11T13:18:34.576Z,5.37
2019-05-11T13:20:37.837Z,8.78
2019-05-11T13:22:40.060Z,6.92
2019-05-11T13:24:42.394Z,4.20
2019-05-11T13:26:44.488Z,6.08
2019-05-11T13:28:48.441Z,4.78
2019-05-11T13:30:52.670Z,7.10
2019-05-11T13:32:55.101Z,7.67
2019-05-11T13:37:01.122Z,4.75
2019-05-11T13:41:07.983Z,6.90
2019-05-11T13:43:10.478Z,7.45
2019-05-11T13:45:14.115Z,8.48
2019-05-11T13:47:17.994Z,6.20
2019-05-11T13:49:20.659Z,8.80
2019-05-11T13:51:22.674Z,5.97
2019-05-11T13:53:24.717Z,6.45
2019-05-11T13:55:28.690Z,7.05
2019-05-11T13:57:30.883Z,8.18
2019-05-11T13:59:32.932Z,4.83
2019-05-11T14:01:37.976Z,4.42
2019-05-11T14:03:43.874Z,10.32
2019-05-11T14:05:48.136Z,5.33
2019-05-11T14:07:50.398Z,6.58
2019-05-11T14:09:52.543Z,4.17
2019-05-11T14:11:54.645Z,4.47
2019-05-11T14:13:58.506Z,8.30
2019-05-11T14:16:00.676Z,5.28
2019-05-11T14:18:08.422Z,4.67
2019-05-11T14:20:09.275Z,9.10
2019-05-11T14:22:11.395Z,8.15
2019-05-11T14:24:13.410Z,6.10
2019-05-11T14:26:15.581Z,6.20
2019-05-11T14:28:18.093Z,5.78
2019-05-11T14:30:20.339Z,7.03
2019-05-11T14:32:22.602Z,3.52
2019-05-11T14:34:24.787Z,8.55
2019-05-11T14:36:28.170Z,7.33
2019-05-11T14:38:31.648Z,7.55
2019-05-11T14:40:33.700Z,9.13
2019-05-11T14:42:37.637Z,4.17
2019-05-11T14:44:39.889Z,5.47
2019-05-11T14:46:42.053Z,8.55
2019-05-11T14:48:44.462Z,8.83
2019-05-11T14:50:48.983Z,13.32
2019-05-11T14:52:50.935Z,11.60
2019-05-11T14:54:53.643Z,15.08
2019-05-11T14:56:55.957Z,8.00
2019-05-11T14:58:58.126Z,7.67
2019-05-11T15:01:00.221Z,5.47
2019-05-11T15:03:02.548Z,5.92
2019-05-11T15:07:08.491Z,6.80
2019-05-11T15:09:10.894Z,6.47
2019-05-11T15:11:12.952Z,5.67
2019-05-11T15:13:15.041Z,9.28
2019-05-11T15:15:18.716Z,9.08
2019-05-11T15:17:21.335Z,9.75
2019-05-11T15:19:23.382Z,6.85
2019-05-11T15:21:27.920Z,4.95
2019-05-11T15:23:29.656Z,7.55
2019-05-11T15:25:32.655Z,7.67
2019-05-11T15:27:34.968Z,8.08
2019-05-11T15:29:37.782Z,6.72
2019-05-11T15:31:40.182Z,7.37
2019-05-11T15:33:42.412Z,12.03
2019-05-11T15:35:44.633Z,8.55
2019-05-11T15:37:47.941Z,7.10
2019-05-11T15:39:50.503Z,4.75
2019-05-11T15:42:05.697Z,10.13
2019-05-11T15:43:57.884Z,8.80
2019-05-11T15:46:00.578Z,5.85
2019-05-11T15:48:02.849Z,3.27
2019-05-11T15:50:05.151Z,8.25
2019-05-11T15:52:08.224Z,6.03
2019-05-11T15:54:10.541Z,8.63
2019-05-11T15:56:12.677Z,7.80
2019-05-11T15:58:14.900Z,7.35
2019-05-11T16:00:19.052Z,11.48
2019-05-11T16:02:21.104Z,3.02
2019-05-11T16:04:23.649Z,4.42
2019-05-11T16:08:28.977Z,3.67
2019-05-11T16:10:31.195Z,8.35
2019-05-11T16:12:33.584Z,6.70
2019-05-11T16:14:38.199Z,8.15
2019-05-11T16:16:40.105Z,4.90
2019-05-11T16:18:44.068Z,5.92
2019-05-11T16:20:49.806Z,6.72
2019-05-11T16:22:50.350Z,5.53
2019-05-11T16:24:52.393Z,9.28
2019-05-11T16:26:54.482Z,11.08
2019-05-11T16:28:58.190Z,8.48
2019-05-11T16:31:00.350Z,8.38
2019-05-11T16:33:02.601Z,8.45
2019-05-11T16:35:05.439Z,4.55
2019-05-11T16:37:09.961Z,5.30
2019-05-11T16:39:12.299Z,7.15
2019-05-11T16:41:14.586Z,4.83
2019-05-11T16:43:18.991Z,11.43
2019-05-11T16:45:23.888Z,6.33
2019-05-11T16:47:25.072Z,8.13
2019-05-11T16:49:32.109Z,5.83
2019-05-11T16:51:31.157Z,6.80
2019-05-11T16:53:35.291Z,6.97
2019-05-11T16:55:37.807Z,5.03
2019-05-11T16:59:42.064Z,5.85
2019-05-11T17:01:44.080Z,4.40
2019-05-11T17:03:48.132Z,7.62
2019-05-11T17:05:50.426Z,5.85
2019-05-11T17:07:52.547Z,6.10
2019-05-11T17:09:54.662Z,5.85
2019-05-11T17:11:57.864Z,2.90
2019-05-11T17:14:00.067Z,8.40
2019-05-11T17:16:02.316Z,4.22
2019-05-11T17:18:04.608Z,6.92
2019-05-11T17:20:08.064Z,2.37
2019-05-11T17:22:10.181Z,5.72
2019-05-11T17:24:12.547Z,5.83
2019-05-11T17:26:14.765Z,7.10
2019-05-11T17:28:17.094Z,5.10
2019-05-11T17:30:19.932Z,6.83
2019-05-11T17:32:22.076Z,5.47
2019-05-11T17:34:24.309Z,5.03
2019-05-11T17:36:27.932Z,7.95
2019-05-11T17:38:30.066Z,6.58
2019-05-11T17:40:32.120Z,4.28
2019-05-11T17:42:34.466Z,7.00
2019-05-11T17:44:39.264Z,5.65
2019-05-11T17:46:41.369Z,6.83
2019-05-11T17:48:43.703Z,5.22
2019-05-11T17:50:45.839Z,7.50
2019-05-11T17:52:48.119Z,2.12
2019-05-11T17:54:50.424Z,7.10
2019-05-11T17:56:52.765Z,6.72
2019-05-11T18:00:58.854Z,3.58
2019-05-11T18:03:01.474Z,6.08
2019-05-11T18:05:04.218Z,4.72
2019-05-11T18:07:06.470Z,3.22
2019-05-11T18:09:08.844Z,2.87
2019-05-11T18:11:10.936Z,4.20
2019-05-11T18:13:13.310Z,3.42
2019-05-11T18:15:49.229Z,4.37
2019-05-11T18:17:58.574Z,4.10
2019-05-11T18:20:13.851Z,5.72
2019-05-11T18:22:04.203Z,4.10
2019-05-11T18:24:08.913Z,7.25
2019-05-11T18:26:10.626Z,5.80
2019-05-11T18:28:14.315Z,3.05
2019-05-11T18:30:17.047Z,4.12
2019-05-11T18:34:21.353Z,8.08
2019-05-11T18:36:24.819Z,5.75
2019-05-11T18:38:27.656Z,1.98
2019-05-11T18:40:30.061Z,7.58
2019-05-11T18:42:32.113Z,7.62
2019-05-11T18:44:34.399Z,6.55
2019-05-11T18:46:39.103Z,6.12
2019-05-11T18:48:41.423Z,5.03
2019-05-11T18:50:43.969Z,2.12
2019-05-11T18:52:46.128Z,6.78
2019-05-11T18:54:48.781Z,5.45
2019-05-11T18:56:51.053Z,6.83
2019-05-11T18:58:53.146Z,3.10
2019-05-11T19:00:55.210Z,6.92
2019-05-11T19:02:58.164Z,8.68
2019-05-11T19:05:00.481Z,3.58
2019-05-11T19:07:14.259Z,7.20
2019-05-11T19:09:08.403Z,4.80
2019-05-11T19:11:10.556Z,3.95
2019-05-11T19:13:12.981Z,6.60
2019-05-11T19:15:15.341Z,5.35
2019-05-11T19:17:18.141Z,3.42
2019-05-11T19:19:20.408Z,5.05
2019-05-11T19:21:22.560Z,4.92
2019-05-11T19:23:25.041Z,3.45
2019-05-11T19:27:28.968Z,4.03
2019-05-11T19:29:31.068Z,5.72
2019-05-11T19:31:33.243Z,5.78
2019-05-11T19:33:38.131Z,3.95
2019-05-11T19:35:40.326Z,5.53
2019-05-11T19:37:42.403Z,15.13
2019-05-11T19:39:47.681Z,6.05
2019-05-11T19:41:48.715Z,4.30
2019-05-11T19:43:50.896Z,3.40
2019-05-11T19:45:53.041Z,6.08
2019-05-11T19:47:57.589Z,6.58
2019-05-11T19:49:59.181Z,8.88
2019-05-11T19:52:01.468Z,4.50
2019-05-11T19:55:51.979Z,6.20
2019-05-11T19:57:54.461Z,12.95
2019-05-11T20:02:01.150Z,3.98
2019-05-11T20:04:03.395Z,6.70
2019-05-11T20:06:05.538Z,8.33
2019-05-11T20:08:08.017Z,10.08
2019-05-11T20:10:10.503Z,5.12
2019-05-11T20:12:12.550Z,3.72
2019-05-11T20:14:14.994Z,4.90
2019-05-11T20:18:21.945Z,7.60
2019-05-11T20:20:24.265Z,28.38
2019-05-11T20:22:28.161Z,15.08
2019-05-11T20:24:30.423Z,9.15
2019-05-11T20:26:32.507Z,5.00
2019-05-11T20:28:35.007Z,7.55
2019-05-11T20:32:39.183Z,5.78
2019-05-11T20:36:43.495Z,7.03
2019-05-11T20:38:47.654Z,7.40
2019-05-11T20:40:51.388Z,3.02
2019-05-11T20:44:55.011Z,3.42
2019-05-11T20:46:58.059Z,8.50
2019-05-11T20:49:00.192Z,4.83
2019-05-11T20:51:02.688Z,7.75
2019-05-11T20:55:08.912Z,6.83
2019-05-11T20:57:11.414Z,4.53
2019-05-11T20:59:14.324Z,4.72
2019-05-11T21:01:17.869Z,7.80
2019-05-11T21:03:20.305Z,2.80
2019-05-11T21:05:22.566Z,7.75
2019-05-11T21:07:24.684Z,6.22
2019-05-11T21:09:28.780Z,6.20
2019-05-11T21:11:33.374Z,5.60
2019-05-11T21:13:35.655Z,9.35
2019-05-11T21:15:38.455Z,8.83
2019-05-11T21:17:42.113Z,4.83
2019-05-11T21:21:52.825Z,3.22
2019-05-11T21:23:51.159Z,4.10
2019-05-11T21:25:54.308Z,2.22
2019-05-11T21:27:57.969Z,2.52
2019-05-11T21:30:00.415Z,3.62
2019-05-11T21:32:02.641Z,5.15
2019-05-11T21:34:04.780Z,5.22
2019-05-11T21:36:08.828Z,6.28
2019-05-11T21:38:10.918Z,57.10
2019-05-11T21:40:13.206Z,7.28
2019-05-11T21:42:15.460Z,20.27
2019-05-11T21:44:18.867Z,8.10
2019-05-11T21:46:23.885Z,8.00
2019-05-11T21:48:28.048Z,9.50
2019-05-11T21:50:36.804Z,3.90
2019-05-11T21:52:39.082Z,5.65
2019-05-11T21:54:42.469Z,4.25
2019-05-11T21:56:44.536Z,6.00
2019-05-11T21:58:46.633Z,2.50
2019-05-11T22:00:49.281Z,5.33
2019-05-11T22:02:53.369Z,2.45
2019-05-11T22:04:55.691Z,3.47
2019-05-11T22:06:59.038Z,9.13
2019-05-11T22:09:01.049Z,3.52
2019-05-11T22:11:04.805Z,5.58
2019-05-11T22:13:07.172Z,2.98
2019-05-11T22:17:11.951Z,4.85
2019-05-11T22:19:14.276Z,6.12
2019-05-11T22:21:18.614Z,2.80
2019-05-11T22:23:20.553Z,3.70
2019-05-11T22:25:22.722Z,5.28
2019-05-11T22:27:24.955Z,5.30
2019-05-11T22:29:28.635Z,2.65
2019-05-11T22:31:31.263Z,4.80
2019-05-11T22:33:33.591Z,6.83
2019-05-11T22:35:37.607Z,6.42
2019-05-11T22:37:39.704Z,4.92
2019-05-11T22:39:41.934Z,5.83
2019-05-11T22:41:44.039Z,8.03
2019-05-11T22:43:48.438Z,3.98
2019-05-11T22:45:50.174Z,7.83
2019-05-11T22:47:52.186Z,2.40
2019-05-11T22:49:54.536Z,2.80
2019-05-11T22:51:59.563Z,3.67
2019-05-11T22:54:00.524Z,2.27
2019-05-11T22:56:02.881Z,3.12
2019-05-11T23:00:08.208Z,1.90
2019-05-11T23:02:12.439Z,3.85
2019-05-11T23:04:14.563Z,4.35
2019-05-11T23:06:18.043Z,4.35
2019-05-11T23:08:20.683Z,6.83
2019-05-11T23:12:24.309Z,1.27
2019-05-11T23:14:28.253Z,3.33
2019-05-11T23:16:30.523Z,2.90
2019-05-11T23:18:32.537Z,2.27
2019-05-11T23:20:34.873Z,4.28
2019-05-11T23:22:56.130Z,3.27
2019-05-11T23:24:50.501Z,4.10
2019-05-11T23:26:52.735Z,5.45
2019-05-11T23:28:54.731Z,4.62
2019-05-11T23:30:58.265Z,1.92
2019-05-11T23:33:00.583Z,3.33
2019-05-11T23:35:02.640Z,1.67
2019-05-11T23:37:04.650Z,4.60
2019-05-11T23:39:09.030Z,2.37
2019-05-11T23:41:23.786Z,3.98
2019-05-11T23:43:14.997Z,4.92
2019-05-11T23:45:19.057Z,2.83
2019-05-11T23:47:21.292Z,4.45
2019-05-11T23:49:23.332Z,2.08
2019-05-11T23:51:28.055Z,4.87
2019-05-11T23:53:32.595Z,2.85
2019-05-11T23:55:34.621Z,3.67
2019-05-11T23:57:37.934Z,3.50
2019-05-11T23:59:41.267Z,4.47
